Etusivu
METAR-TAF:

METAR-TAF

Lentoasemat :

Weno, Mikronesia

Leveyspiiri: 07-28N, Pituuspiiri: 151-51E, korkeus merenpinnasta: 3 m

Tämänhetkinen sää

Tämä raportti tehtiin 11 minuuttia sitten, kello 12.52 UTC
Tuuli 6 kn idästä/koillisesta
Lämpötila 28°C
Kosteus 79%
Ilmanpaine 1011 hPa
Näkyvyys: 24.1 km
Muutamia pilviä 1400 ft:n korkeudessa
Hajanaisia pilviä 12000 ft:n korkeudessa
Pilvistä 28000 ft:n korkeudessa

METAR: PTKK 221252Z 06006KT 15SM FEW014 SCT120 OVC280 28/24 A2986 RMK SLP111 T02830241

Aika: 23:03 (13:03 UTC)

Sääennuste

Tämä raportti tehtiin 1 tunti ja 27 minuuttia sitten, kello 11.36 UTC
Ennuste voimassa 22. päivästä klo 12 UTC - 23. päivään klo 12 UTC
Tuuli 5 kn eri suunnista
Näkyvyys: 10 km
Muutamia pilviä 1400 ft:n korkeudessa
Hajonneita pilviä 13000 ft:n korkeudessa
sadekuuroja näköpiirissä

TAF: PTKK 221136Z 2212/2312 VRB05KT P6SM VCSH FEW014 BKN130

Säähavainnot ja -ennusteet yli 4000 lentoasemalta (METAR- ja TAF-raportit).

Käytössä olevat sääasemat on merkitty karttaan keltaisilla ja punaisilla pisteillä.

Aseta hiiri pisteen päälle nähdäksesi sääaseman nimen.

Klikkaa sitten nähdäksesi säähavainnot ja -ennusteet.

Kartan vaihtaminen: klikkaa mustalla rastilla varustettuja vihreitä pisteitä, niin voit zoomata sisään; viivalla varustettua vihreää pistettä, niin voit zoomata ulos tai vihreitä nuolia, niin pääset viereisille kartoille.


METAR-TAF: